createdAt,value
2022-07-26T00:03:58.164Z,6.50
2022-07-26T00:08:11.807Z,12.95
2022-07-26T00:12:16.970Z,11.55
2022-07-26T00:16:20.851Z,10.60
2022-07-26T00:20:24.139Z,9.77
2022-07-26T00:24:35.158Z,10.63
2022-07-26T00:28:41.409Z,11.77
2022-07-26T00:32:44.665Z,6.45
2022-07-26T00:36:48.686Z,8.18
2022-07-26T00:40:51.923Z,8.90
2022-07-26T00:44:56.729Z,8.35
2022-07-26T00:49:00.385Z,19.90
2022-07-26T00:53:03.989Z,11.25
2022-07-26T00:57:07.323Z,11.68
2022-07-26T01:01:12.551Z,14.43
2022-07-26T01:05:15.955Z,10.93
2022-07-26T01:09:19.748Z,12.90
2022-07-26T01:13:23.248Z,12.88
2022-07-26T01:17:27.817Z,13.05
2022-07-26T01:21:33.185Z,15.27
2022-07-26T01:25:43.336Z,13.00
2022-07-26T01:29:47.084Z,15.80
2022-07-26T01:33:50.678Z,13.80
2022-07-26T01:37:55.551Z,14.45
2022-07-26T01:41:59.405Z,16.10
2022-07-26T01:46:02.764Z,12.32
2022-07-26T01:50:08.722Z,16.10
2022-07-26T01:54:13.334Z,14.07
2022-07-26T01:58:16.738Z,12.43
2022-07-26T02:02:20.093Z,13.82
2022-07-26T02:06:23.321Z,13.75
2022-07-26T02:10:48.777Z,13.02
2022-07-26T02:14:52.013Z,15.38
2022-07-26T02:18:55.150Z,17.17
2022-07-26T02:22:58.351Z,15.00
2022-07-26T02:27:03.329Z,14.30
2022-07-26T02:31:06.497Z,14.35
2022-07-26T02:35:10.205Z,14.38
2022-07-26T02:39:13.869Z,12.98
2022-07-26T02:43:18.420Z,13.32
2022-07-26T02:47:21.557Z,13.80
2022-07-26T02:51:24.895Z,18.83
2022-07-26T02:55:28.791Z,14.70
2022-07-26T02:59:33.382Z,19.02
2022-07-26T03:03:36.755Z,18.52
2022-07-26T03:07:41.467Z,17.95
2022-07-26T03:11:44.642Z,22.05
2022-07-26T03:15:49.323Z,19.20
2022-07-26T03:19:52.561Z,22.52
2022-07-26T03:23:55.919Z,19.83
2022-07-26T03:27:59.143Z,19.35
2022-07-26T03:32:04.812Z,20.38
2022-07-26T03:36:11.644Z,28.08
2022-07-26T03:40:19.762Z,21.77
2022-07-26T03:44:22.994Z,20.67
2022-07-26T03:48:27.657Z,19.38
2022-07-26T03:52:30.850Z,21.55
2022-07-26T03:56:34.313Z,21.45
2022-07-26T04:00:37.488Z,21.80
2022-07-26T04:04:42.090Z,19.98
2022-07-26T04:08:45.522Z,19.38
2022-07-26T04:12:48.660Z,19.65
2022-07-26T04:16:51.833Z,19.77
2022-07-26T04:20:56.710Z,19.13
2022-07-26T04:24:59.958Z,18.95
2022-07-26T04:29:03.199Z,19.70
2022-07-26T04:33:08.450Z,16.92
2022-07-26T04:37:13.039Z,19.67
2022-07-26T04:41:16.590Z,16.80
2022-07-26T04:45:19.879Z,19.67
2022-07-26T04:49:23.110Z,17.88
2022-07-26T04:53:27.697Z,21.45
2022-07-26T04:57:31.049Z,17.13
2022-07-26T05:01:34.544Z,18.10
2022-07-26T05:05:37.742Z,14.60
2022-07-26T05:09:42.485Z,15.98
2022-07-26T05:13:45.750Z,17.38
2022-07-26T05:17:48.942Z,16.38
2022-07-26T05:21:52.742Z,14.05
2022-07-26T05:25:57.552Z,10.50
2022-07-26T05:30:00.848Z,10.32
2022-07-26T05:34:04.692Z,11.32
2022-07-26T05:38:08.089Z,11.50
2022-07-26T05:42:12.744Z,9.77
2022-07-26T05:46:16.776Z,13.98
2022-07-26T05:50:20.746Z,7.47
2022-07-26T05:54:23.910Z,9.73
2022-07-26T05:58:28.522Z,12.45
2022-07-26T06:02:31.759Z,5.65
2022-07-26T06:06:34.993Z,6.95
2022-07-26T06:10:38.152Z,6.82
2022-07-26T06:14:42.715Z,5.80
2022-07-26T06:18:45.961Z,7.85
2022-07-26T06:22:49.035Z,8.73
2022-07-26T06:26:56.820Z,7.40
2022-07-26T06:31:01.930Z,4.82
2022-07-26T06:35:05.677Z,7.53
2022-07-26T06:39:09.323Z,8.95
2022-07-26T06:43:12.469Z,4.35
2022-07-26T06:47:17.005Z,4.43
2022-07-26T06:51:20.153Z,5.28
2022-07-26T06:55:23.539Z,5.63
2022-07-26T06:59:26.711Z,4.72
2022-07-26T07:03:31.262Z,4.13
2022-07-26T07:07:36.346Z,10.38
2022-07-26T07:11:39.700Z,7.10
2022-07-26T07:15:43.131Z,7.75
2022-07-26T07:19:47.828Z,5.25
2022-07-26T07:23:51.136Z,6.47
2022-07-26T07:27:55.205Z,4.80
2022-07-26T07:31:58.594Z,8.93
2022-07-26T07:36:03.185Z,5.18
2022-07-26T07:40:07.822Z,7.05
2022-07-26T07:44:11.408Z,5.47
2022-07-26T07:48:14.931Z,4.05
2022-07-26T07:52:19.536Z,4.20
2022-07-26T07:56:22.938Z,10.10
2022-07-26T08:00:27.637Z,6.25
2022-07-26T08:04:30.975Z,6.85
2022-07-26T08:08:36.117Z,5.65
2022-07-26T08:12:39.376Z,6.93
2022-07-26T08:16:44.864Z,3.00
2022-07-26T08:20:48.350Z,3.20
2022-07-26T08:24:53.190Z,2.72
2022-07-26T08:28:59.377Z,5.03
2022-07-26T08:33:02.889Z,5.85
2022-07-26T08:37:17.197Z,5.40
2022-07-26T08:41:23.270Z,4.53
2022-07-26T08:45:29.284Z,3.95
2022-07-26T08:49:32.577Z,5.15
2022-07-26T08:53:37.771Z,4.65
2022-07-26T08:57:42.900Z,2.67
2022-07-26T09:01:53.845Z,9.30
2022-07-26T09:06:00.709Z,4.43
2022-07-26T09:10:06.652Z,3.35
2022-07-26T09:14:11.160Z,4.38
2022-07-26T09:18:27.458Z,1.80
2022-07-26T09:22:30.615Z,2.75
2022-07-26T09:26:33.946Z,2.17
2022-07-26T09:30:38.772Z,5.70
2022-07-26T09:34:52.101Z,3.53
2022-07-26T09:38:59.194Z,1.70
2022-07-26T09:43:05.264Z,2.42
2022-07-26T09:47:10.031Z,2.00
2022-07-26T09:51:13.406Z,1.77
2022-07-26T09:55:16.799Z,1.98
2022-07-26T09:59:22.229Z,1.67
2022-07-26T10:03:26.763Z,4.15
2022-07-26T10:07:30.007Z,3.55
2022-07-26T10:11:37.983Z,1.85
2022-07-26T10:15:43.732Z,3.63
2022-07-26T10:19:51.575Z,5.18
2022-07-26T10:23:56.902Z,2.10
2022-07-26T10:28:00.238Z,3.40
2022-07-26T10:32:20.575Z,2.22
2022-07-26T10:36:28.978Z,7.18
2022-07-26T10:40:32.414Z,4.75
2022-07-26T10:44:36.580Z,6.63
2022-07-26T10:48:57.228Z,1.70
2022-07-26T10:53:03.311Z,4.57
2022-07-26T10:57:06.463Z,2.10
2022-07-26T11:01:10.147Z,2.03
2022-07-26T11:05:15.866Z,2.72
2022-07-26T11:09:21.134Z,2.83
2022-07-26T11:13:24.829Z,2.90
2022-07-26T11:17:29.104Z,5.72
2022-07-26T11:21:32.366Z,2.47
2022-07-26T11:25:36.917Z,1.83
2022-07-26T11:29:41.906Z,1.70
2022-07-26T11:33:52.486Z,2.25
2022-07-26T11:38:07.848Z,1.35
2022-07-26T11:42:19.679Z,3.75
2022-07-26T11:46:23.120Z,3.03
2022-07-26T11:50:26.639Z,3.42
2022-07-26T11:54:31.202Z,2.92
2022-07-26T11:58:36.206Z,1.65
2022-07-26T12:02:39.432Z,3.08
2022-07-26T12:06:42.571Z,2.47
2022-07-26T12:10:54.987Z,2.03
2022-07-26T12:15:01.432Z,5.70
2022-07-26T12:19:05.460Z,1.77
2022-07-26T12:23:08.554Z,1.80
2022-07-26T12:27:14.619Z,3.38
2022-07-26T12:31:27.300Z,1.70
2022-07-26T12:35:35.809Z,3.63
2022-07-26T12:39:39.274Z,2.92
2022-07-26T12:43:42.744Z,2.00
2022-07-26T12:47:55.560Z,2.97
2022-07-26T12:51:58.770Z,4.72
2022-07-26T12:56:02.483Z,2.45
2022-07-26T13:00:07.185Z,2.70
2022-07-26T13:04:12.375Z,2.20
2022-07-26T13:08:15.705Z,3.58
2022-07-26T13:12:18.870Z,5.65
2022-07-26T13:16:22.077Z,1.38
2022-07-26T13:20:26.618Z,1.80
2022-07-26T13:24:31.100Z,1.77
2022-07-26T13:28:35.728Z,3.85
2022-07-26T13:32:38.866Z,1.80
2022-07-26T13:36:43.778Z,1.75
2022-07-26T13:40:47.003Z,2.10
2022-07-26T13:44:50.104Z,3.40
2022-07-26T13:49:00.984Z,2.15
2022-07-26T13:53:06.151Z,3.58
2022-07-26T13:57:09.279Z,2.50
2022-07-26T14:01:12.433Z,3.00
2022-07-26T14:05:15.619Z,5.05
2022-07-26T14:09:21.498Z,1.17
2022-07-26T14:13:24.620Z,1.30
2022-07-26T14:17:27.765Z,1.40
2022-07-26T14:21:47.014Z,4.65
2022-07-26T14:25:57.734Z,2.63
2022-07-26T14:30:00.929Z,1.75
2022-07-26T14:34:04.300Z,2.75
2022-07-26T14:38:07.494Z,2.03
2022-07-26T14:42:12.139Z,2.80
2022-07-26T14:46:15.377Z,1.83
2022-07-26T14:50:18.614Z,1.30
2022-07-26T14:54:22.450Z,1.58
2022-07-26T14:58:27.097Z,1.40
2022-07-26T15:02:30.270Z,1.20
2022-07-26T15:06:33.456Z,4.57
2022-07-26T15:10:36.639Z,1.20
2022-07-26T15:14:42.145Z,1.60
2022-07-26T15:18:45.255Z,1.95
2022-07-26T15:22:48.662Z,3.97
2022-07-26T15:26:51.996Z,1.30
2022-07-26T15:30:56.493Z,2.50
2022-07-26T15:34:59.751Z,1.98
2022-07-26T15:39:16.087Z,1.33
2022-07-26T15:43:22.624Z,1.58
2022-07-26T15:48:00.999Z,1.40
2022-07-26T15:52:09.202Z,2.35
2022-07-26T15:56:12.365Z,1.10
2022-07-26T16:00:17.687Z,1.77
2022-07-26T16:04:22.167Z,1.65
2022-07-26T16:08:25.560Z,1.20
2022-07-26T16:12:29.395Z,4.40
2022-07-26T16:16:32.636Z,7.10
2022-07-26T16:20:37.672Z,1.08
2022-07-26T16:24:40.737Z,6.88
2022-07-26T16:28:44.475Z,1.15
2022-07-26T16:32:48.507Z,1.77
2022-07-26T16:36:53.360Z,1.38
2022-07-26T16:40:56.539Z,1.17
2022-07-26T16:44:59.671Z,1.30
2022-07-26T16:49:03.026Z,1.40
2022-07-26T16:53:13.163Z,1.10
2022-07-26T16:57:16.599Z,1.30
2022-07-26T17:01:19.964Z,2.42
2022-07-26T17:05:23.303Z,1.35
2022-07-26T17:09:27.987Z,2.25
2022-07-26T17:13:31.241Z,1.10
2022-07-26T17:17:34.355Z,2.00
2022-07-26T17:21:37.583Z,1.25
2022-07-26T17:25:42.260Z,9.35
2022-07-26T17:29:45.785Z,4.43
2022-07-26T17:33:50.530Z,2.42
2022-07-26T17:37:56.465Z,1.10
2022-07-26T17:42:01.355Z,2.67
2022-07-26T17:46:04.744Z,2.15
2022-07-26T17:50:34.057Z,1.52
2022-07-26T17:54:32.450Z,2.20
2022-07-26T17:58:37.043Z,1.20
2022-07-26T18:02:40.276Z,2.38
2022-07-26T18:06:44.118Z,7.35
2022-07-26T18:10:51.073Z,5.20
2022-07-26T18:14:56.022Z,3.97
2022-07-26T18:18:59.132Z,1.50
2022-07-26T18:23:02.819Z,2.85
2022-07-26T18:27:06.237Z,2.75
2022-07-26T18:31:11.102Z,3.72
2022-07-26T18:35:14.547Z,1.10
2022-07-26T18:39:17.771Z,2.95
2022-07-26T18:43:21.112Z,2.97
2022-07-26T18:47:26.340Z,1.15
2022-07-26T18:51:29.543Z,5.85
2022-07-26T18:55:35.238Z,2.38
2022-07-26T18:59:38.483Z,4.03
2022-07-26T19:03:44.237Z,2.72
2022-07-26T19:07:48.374Z,4.18
2022-07-26T19:11:51.612Z,1.98
2022-07-26T19:15:54.740Z,5.68
2022-07-26T19:19:59.780Z,2.72
2022-07-26T19:24:03.154Z,1.40
2022-07-26T19:28:07.211Z,1.33
2022-07-26T19:32:13.035Z,5.55
2022-07-26T19:36:22.554Z,5.15
2022-07-26T19:40:30.367Z,1.25
2022-07-26T19:44:33.669Z,2.67
2022-07-26T19:48:36.917Z,2.47
2022-07-26T19:52:42.174Z,1.65
2022-07-26T19:56:45.413Z,7.32
2022-07-26T20:00:48.928Z,3.40
2022-07-26T20:04:52.270Z,1.58
2022-07-26T20:08:56.998Z,1.58
2022-07-26T20:13:00.207Z,2.80
2022-07-26T20:17:03.456Z,3.65
2022-07-26T20:21:15.412Z,5.18
2022-07-26T20:25:21.821Z,3.00
2022-07-26T20:29:25.375Z,2.47
2022-07-26T20:33:28.651Z,3.90
2022-07-26T20:37:31.878Z,1.52
2022-07-26T20:41:36.476Z,1.90
2022-07-26T20:45:40.459Z,2.65
2022-07-26T20:49:43.605Z,3.30
2022-07-26T20:53:46.911Z,3.53
2022-07-26T20:57:51.503Z,4.38
2022-07-26T21:01:54.657Z,1.83
2022-07-26T21:05:57.856Z,3.20
2022-07-26T21:10:00.966Z,2.58
2022-07-26T21:14:05.945Z,7.25
2022-07-26T21:18:09.592Z,2.45
2022-07-26T21:22:15.556Z,4.15
2022-07-26T21:26:18.862Z,4.63
2022-07-26T21:30:23.488Z,1.60
2022-07-26T21:34:27.108Z,5.38
2022-07-26T21:38:32.104Z,4.78
2022-07-26T21:42:35.321Z,5.93
2022-07-26T21:46:39.936Z,7.43
2022-07-26T21:50:43.196Z,2.28
2022-07-26T21:54:46.247Z,3.22
2022-07-26T21:58:49.413Z,4.10
2022-07-26T22:02:53.963Z,1.83
2022-07-26T22:06:57.133Z,4.03
2022-07-26T22:11:00.414Z,3.60
2022-07-26T22:15:03.552Z,3.88
2022-07-26T22:19:08.209Z,5.03
2022-07-26T22:23:13.476Z,2.70
2022-07-26T22:27:16.636Z,3.05
2022-07-26T22:31:19.867Z,7.68
2022-07-26T22:35:25.081Z,2.35
2022-07-26T22:39:33.213Z,2.65
2022-07-26T22:43:36.471Z,3.35
2022-07-26T22:47:40.603Z,3.40
2022-07-26T22:52:00.796Z,5.70
2022-07-26T22:56:04.038Z,5.15
2022-07-26T23:00:09.097Z,8.88
2022-07-26T23:04:12.275Z,3.40
2022-07-26T23:12:40.567Z,5.38
2022-07-26T23:16:45.477Z,4.45
2022-07-26T23:20:48.649Z,9.55
2022-07-26T23:24:53.204Z,2.78
2022-07-26T23:28:56.334Z,4.45
2022-07-26T23:32:59.402Z,6.72
2022-07-26T23:37:03.162Z,6.43
2022-07-26T23:41:07.779Z,3.10
2022-07-26T23:45:11.500Z,5.85
2022-07-26T23:49:15.099Z,6.90
2022-07-26T23:53:18.578Z,6.93
2022-07-26T23:57:31.523Z,8.02
